createdAt,value
2022-08-07T00:01:44.340Z,15.20
2022-08-07T00:04:04.882Z,15.10
2022-08-07T00:06:34.021Z,15.10
2022-08-07T00:09:17.143Z,15.00
2022-08-07T00:11:55.407Z,15.00
2022-08-07T00:14:31.010Z,14.90
2022-08-07T00:17:03.012Z,14.90
2022-08-07T00:19:34.287Z,14.90
2022-08-07T00:22:24.361Z,14.90
2022-08-07T00:25:16.657Z,14.90
2022-08-07T00:27:52.154Z,14.90
2022-08-07T00:30:27.249Z,14.80
2022-08-07T00:33:00.949Z,14.70
2022-08-07T00:35:30.606Z,14.60
2022-08-07T00:37:59.765Z,14.70
2022-08-07T00:40:39.320Z,14.60
2022-08-07T00:43:59.021Z,14.60
2022-08-07T00:46:02.264Z,14.60
2022-08-07T00:48:31.801Z,14.50
2022-08-07T00:51:01.273Z,14.50
2022-08-07T00:53:39.183Z,14.50
2022-08-07T00:56:15.940Z,14.40
2022-08-07T00:58:46.993Z,14.40
2022-08-07T01:01:20.467Z,14.50
2022-08-07T01:03:56.827Z,14.50
2022-08-07T01:06:29.229Z,14.50
2022-08-07T01:09:00.993Z,14.60
2022-08-07T01:12:23.837Z,14.60
2022-08-07T01:14:28.240Z,14.60
2022-08-07T01:16:57.207Z,14.50
2022-08-07T01:19:32.161Z,14.50
2022-08-07T01:22:00.663Z,14.40
2022-08-07T01:27:19.979Z,14.40
2022-08-07T01:29:48.483Z,14.40
2022-08-07T01:32:18.455Z,14.40
2022-08-07T01:34:47.438Z,14.40
2022-08-07T01:37:17.370Z,14.30
2022-08-07T01:39:47.601Z,14.30
2022-08-07T01:42:38.949Z,14.20
2022-08-07T01:45:09.841Z,14.20
2022-08-07T01:48:29.897Z,14.10
2022-08-07T01:50:33.731Z,14.00
2022-08-07T01:53:08.743Z,13.90
2022-08-07T01:55:48.773Z,13.80
2022-08-07T01:58:29.016Z,13.90
2022-08-07T02:01:09.915Z,13.90
2022-08-07T02:03:50.299Z,14.00
2022-08-07T02:06:31.823Z,14.00
2022-08-07T02:09:06.193Z,13.90
2022-08-07T02:12:02.575Z,13.80
2022-08-07T02:14:35.888Z,13.80
2022-08-07T02:17:06.198Z,13.80
2022-08-07T02:20:07.508Z,13.80
2022-08-07T02:22:27.933Z,13.80
2022-08-07T02:24:59.341Z,13.80
2022-08-07T02:27:34.588Z,13.80
2022-08-07T02:30:07.498Z,13.80
2022-08-07T02:32:38.691Z,13.70
2022-08-07T02:35:10.965Z,13.80
2022-08-07T02:37:44.221Z,13.80
2022-08-07T02:40:30.782Z,13.80
2022-08-07T02:43:02.313Z,13.80
2022-08-07T02:45:58.462Z,13.70
2022-08-07T02:48:28.478Z,13.60
2022-08-07T02:51:03.014Z,13.50
2022-08-07T02:53:38.936Z,13.50
2022-08-07T02:56:21.418Z,13.40
2022-08-07T02:58:55.346Z,13.40
2022-08-07T03:01:36.548Z,13.40
2022-08-07T03:04:12.996Z,13.40
2022-08-07T03:06:48.359Z,13.30
2022-08-07T03:09:43.654Z,13.30
2022-08-07T03:12:16.162Z,13.20
2022-08-07T03:14:52.587Z,13.20
2022-08-07T03:17:22.129Z,13.10
2022-08-07T03:19:54.640Z,13.10
2022-08-07T03:22:29.676Z,13.10
2022-08-07T03:24:59.946Z,13.10
2022-08-07T03:27:30.448Z,13.00
2022-08-07T03:30:00.487Z,12.90
2022-08-07T03:32:49.133Z,12.90
2022-08-07T03:35:43.889Z,12.80
2022-08-07T03:38:21.226Z,12.80
2022-08-07T03:40:57.843Z,12.70
2022-08-07T03:43:32.462Z,12.70
2022-08-07T03:46:03.740Z,12.70
2022-08-07T03:48:45.548Z,12.70
2022-08-07T03:51:30.937Z,12.70
2022-08-07T03:54:35.676Z,12.70
2022-08-07T03:57:07.321Z,12.70
2022-08-07T03:59:35.004Z,12.70
2022-08-07T04:02:02.663Z,12.70
2022-08-07T04:04:32.632Z,12.60
2022-08-07T04:07:00.311Z,12.60
2022-08-07T04:09:45.112Z,12.60
2022-08-07T04:12:23.806Z,12.60
2022-08-07T04:15:00.128Z,12.60
2022-08-07T04:18:31.410Z,12.60
2022-08-07T04:20:15.144Z,12.60
2022-08-07T04:22:53.171Z,12.70
2022-08-07T04:25:23.724Z,12.70
2022-08-07T04:27:59.368Z,12.70
2022-08-07T04:30:43.927Z,12.70
2022-08-07T04:33:17.752Z,12.70
2022-08-07T04:35:50.113Z,12.70
2022-08-07T04:38:19.309Z,12.70
2022-08-07T04:40:52.495Z,12.80
2022-08-07T04:44:11.836Z,12.80
2022-08-07T04:47:05.058Z,12.90
2022-08-07T04:50:05.984Z,12.90
2022-08-07T04:53:09.203Z,13.00
2022-08-07T04:58:10.760Z,13.10
2022-08-07T05:00:12.442Z,13.20
2022-08-07T05:02:26.561Z,13.30
2022-08-07T05:05:52.858Z,13.40
2022-08-07T05:09:00.845Z,13.50
2022-08-07T05:11:57.087Z,13.60
2022-08-07T05:14:53.406Z,13.70
2022-08-07T05:17:50.430Z,13.80
2022-08-07T05:20:26.916Z,13.90
2022-08-07T05:23:03.987Z,14.00
2022-08-07T05:25:54.405Z,14.20
2022-08-07T05:28:26.962Z,14.30
2022-08-07T05:30:58.789Z,14.40
2022-08-07T05:33:30.137Z,14.50
2022-08-07T05:35:59.074Z,14.60
2022-08-07T05:39:01.046Z,14.80
2022-08-07T05:41:18.464Z,15.10
2022-08-07T05:44:12.100Z,15.40
2022-08-07T05:46:43.313Z,15.70
2022-08-07T05:49:12.967Z,15.90
2022-08-07T05:51:47.175Z,16.00
2022-08-07T05:54:30.982Z,16.20
2022-08-07T05:57:01.176Z,16.30
2022-08-07T05:59:38.991Z,16.50
2022-08-07T06:02:29.124Z,16.60
2022-08-07T06:05:06.835Z,16.90
2022-08-07T06:08:05.349Z,17.00
2022-08-07T06:10:23.930Z,17.20
2022-08-07T06:12:51.410Z,17.40
2022-08-07T06:15:20.889Z,17.50
2022-08-07T06:17:53.722Z,17.60
2022-08-07T06:20:31.975Z,17.70
2022-08-07T06:23:46.048Z,17.90
2022-08-07T06:26:01.418Z,18.00
2022-08-07T06:28:29.085Z,18.10
2022-08-07T06:30:58.153Z,18.30
2022-08-07T06:33:26.556Z,18.50
2022-08-07T06:36:13.089Z,18.60
2022-08-07T06:38:59.433Z,18.70
2022-08-07T06:42:01.833Z,19.00
2022-08-07T06:44:34.179Z,19.00
2022-08-07T06:47:10.308Z,19.20
2022-08-07T06:49:51.702Z,19.30
2022-08-07T06:52:31.985Z,19.30
2022-08-07T06:55:33.326Z,19.50
2022-08-07T06:58:16.570Z,19.50
2022-08-07T07:00:46.123Z,19.80
2022-08-07T07:03:16.993Z,20.10
2022-08-07T07:06:03.485Z,20.20
2022-08-07T07:08:33.932Z,20.20
2022-08-07T07:11:13.260Z,20.40
2022-08-07T07:14:01.460Z,20.30
2022-08-07T07:16:38.938Z,20.60
2022-08-07T07:19:58.014Z,20.80
2022-08-07T07:22:34.095Z,21.00
2022-08-07T07:26:33.052Z,21.10
2022-08-07T07:28:29.960Z,21.10
2022-08-07T07:31:44.476Z,21.20
2022-08-07T07:34:30.887Z,21.40
2022-08-07T07:37:14.241Z,21.30
2022-08-07T07:39:57.277Z,21.40
2022-08-07T07:42:32.853Z,21.60
2022-08-07T07:45:07.787Z,21.80
2022-08-07T07:47:52.807Z,21.90
2022-08-07T07:50:35.392Z,22.40
2022-08-07T07:53:20.199Z,22.70
2022-08-07T07:56:01.061Z,22.60
2022-08-07T07:58:40.804Z,22.40
2022-08-07T08:04:09.343Z,22.40
2022-08-07T08:06:52.218Z,22.60
2022-08-07T08:09:29.621Z,22.70
2022-08-07T08:12:03.885Z,23.00
2022-08-07T08:14:36.538Z,23.20
2022-08-07T08:17:56.285Z,23.10
2022-08-07T08:20:17.733Z,23.00
2022-08-07T08:23:14.314Z,22.90
2022-08-07T08:26:07.247Z,23.20
2022-08-07T08:28:45.033Z,23.50
2022-08-07T08:31:59.260Z,23.60
2022-08-07T08:34:27.050Z,23.50
2022-08-07T08:36:59.757Z,23.80
2022-08-07T08:39:38.958Z,24.20
2022-08-07T08:42:35.648Z,24.40
2022-08-07T08:45:59.532Z,24.20
2022-08-07T08:48:46.629Z,24.10
2022-08-07T08:52:00.806Z,24.30
2022-08-07T08:54:44.960Z,24.70
2022-08-07T08:57:55.322Z,24.80
2022-08-07T09:00:30.082Z,25.40
2022-08-07T09:03:47.638Z,25.40
2022-08-07T09:07:27.215Z,25.50
2022-08-07T09:10:44.859Z,26.30
2022-08-07T09:14:04.284Z,27.40
2022-08-07T09:17:16.299Z,28.30
2022-08-07T09:20:35.004Z,28.40
2022-08-07T09:24:30.559Z,28.20
2022-08-07T09:26:47.785Z,27.80
2022-08-07T09:30:05.593Z,27.80
2022-08-07T09:33:52.770Z,28.80
2022-08-07T09:36:42.818Z,29.00
2022-08-07T09:39:54.266Z,28.30
2022-08-07T09:42:50.483Z,27.90
2022-08-07T09:47:23.903Z,28.70
2022-08-07T09:50:02.315Z,28.30
2022-08-07T09:52:42.058Z,27.60
2022-08-07T09:55:29.525Z,29.40
2022-08-07T09:58:50.973Z,30.00
2022-08-07T10:01:51.041Z,29.40
2022-08-07T10:05:12.456Z,29.30
2022-08-07T10:08:49.538Z,29.40
2022-08-07T10:12:18.188Z,30.20
2022-08-07T10:15:37.606Z,30.80
2022-08-07T10:18:36.276Z,31.00
2022-08-07T10:22:12.388Z,30.00
2022-08-07T10:25:42.306Z,29.20
2022-08-07T10:29:30.375Z,29.00
2022-08-07T10:32:36.752Z,29.20
2022-08-07T10:35:55.837Z,29.00
2022-08-07T10:38:49.885Z,29.20
2022-08-07T10:41:54.687Z,28.80
2022-08-07T10:44:56.598Z,29.10
2022-08-07T10:48:12.327Z,30.90
2022-08-07T10:51:16.585Z,30.80
2022-08-07T10:55:01.674Z,30.40
2022-08-07T10:57:57.829Z,30.60
2022-08-07T11:00:42.978Z,30.60
2022-08-07T11:03:55.059Z,31.00
2022-08-07T11:07:56.158Z,31.20
2022-08-07T11:10:27.507Z,31.30
2022-08-07T11:14:42.545Z,30.60
2022-08-07T11:16:34.463Z,29.90
2022-08-07T11:19:36.256Z,29.70
2022-08-07T11:22:32.530Z,29.50
2022-08-07T11:25:25.726Z,30.10
2022-08-07T11:28:21.059Z,30.10
2022-08-07T11:31:35.178Z,31.00
2022-08-07T11:34:21.988Z,32.30
2022-08-07T11:37:18.157Z,32.40
2022-08-07T11:40:31.506Z,31.50
2022-08-07T11:43:41.239Z,32.40
2022-08-07T11:47:06.648Z,34.10
2022-08-07T11:50:35.035Z,34.80
2022-08-07T11:54:00.995Z,33.50
2022-08-07T11:58:00.226Z,32.60
2022-08-07T12:01:12.456Z,32.50
2022-08-07T12:04:43.256Z,32.00
2022-08-07T12:07:27.581Z,31.30
2022-08-07T12:10:17.769Z,31.20
2022-08-07T12:13:03.957Z,31.80
2022-08-07T12:16:06.619Z,32.40
2022-08-07T12:19:01.048Z,33.90
2022-08-07T12:22:38.055Z,34.60
2022-08-07T12:26:05.989Z,35.90
2022-08-07T12:29:11.800Z,36.40
2022-08-07T12:32:03.726Z,35.80
2022-08-07T12:34:40.441Z,35.60
2022-08-07T12:37:16.898Z,34.90
2022-08-07T12:39:54.702Z,34.00
2022-08-07T12:42:33.208Z,34.10
2022-08-07T12:45:22.665Z,34.40
2022-08-07T12:48:00.874Z,33.90
2022-08-07T12:51:17.158Z,33.70
2022-08-07T12:54:41.153Z,33.90
2022-08-07T12:57:11.220Z,34.70
2022-08-07T12:59:54.544Z,34.60
2022-08-07T13:03:56.054Z,34.90
2022-08-07T13:07:10.585Z,35.40
2022-08-07T13:10:51.402Z,34.30
2022-08-07T13:14:23.029Z,35.00
2022-08-07T13:17:13.009Z,36.00
2022-08-07T13:20:08.254Z,35.80
2022-08-07T13:23:59.888Z,35.10
2022-08-07T13:26:25.543Z,34.10
2022-08-07T13:29:47.713Z,33.30
2022-08-07T13:32:48.929Z,33.00
2022-08-07T13:36:00.686Z,32.60
2022-08-07T13:39:04.898Z,32.80
2022-08-07T13:41:50.362Z,33.60
2022-08-07T13:44:36.800Z,35.40
2022-08-07T13:47:15.823Z,36.10
2022-08-07T13:50:33.762Z,37.10
2022-08-07T13:52:47.013Z,36.80
2022-08-07T13:55:26.320Z,37.20
2022-08-07T13:58:31.451Z,37.80
2022-08-07T14:01:20.395Z,37.80
2022-08-07T14:04:05.257Z,36.60
2022-08-07T14:06:41.430Z,35.20
2022-08-07T14:10:12.294Z,34.40
2022-08-07T14:12:58.404Z,34.80
2022-08-07T14:15:38.654Z,35.40
2022-08-07T14:18:28.370Z,34.90
2022-08-07T14:22:01.367Z,35.10
2022-08-07T14:24:42.180Z,34.90
2022-08-07T14:28:10.809Z,34.80
2022-08-07T14:30:12.689Z,35.70
2022-08-07T14:33:05.160Z,36.50
2022-08-07T14:35:45.212Z,37.10
2022-08-07T14:38:26.313Z,37.00
2022-08-07T14:41:14.733Z,36.00
2022-08-07T14:43:57.949Z,34.50
2022-08-07T14:46:51.552Z,33.70
2022-08-07T14:49:56.885Z,33.00
2022-08-07T14:52:27.713Z,33.60
2022-08-07T14:54:59.788Z,34.80
2022-08-07T14:57:58.765Z,35.50
2022-08-07T15:00:35.912Z,36.10
2022-08-07T15:03:18.805Z,36.90
2022-08-07T15:08:54.539Z,34.30
2022-08-07T15:11:54.323Z,33.70
2022-08-07T15:14:30.638Z,34.30
2022-08-07T15:17:11.599Z,33.70
2022-08-07T15:20:33.021Z,33.90
2022-08-07T15:22:55.105Z,34.30
2022-08-07T15:32:01.111Z,33.30
2022-08-07T15:34:18.085Z,33.90
2022-08-07T15:37:03.732Z,33.80
2022-08-07T15:39:57.800Z,34.50
2022-08-07T15:42:48.119Z,35.10
2022-08-07T15:45:55.034Z,35.60
2022-08-07T15:48:37.377Z,34.70
2022-08-07T15:54:17.105Z,32.90
2022-08-07T15:56:48.221Z,32.60
2022-08-07T15:59:39.658Z,32.20
2022-08-07T16:02:30.486Z,31.60
2022-08-07T16:05:15.525Z,30.90
2022-08-07T16:08:30.477Z,30.60
2022-08-07T16:10:52.342Z,31.20
2022-08-07T16:13:58.357Z,31.50
2022-08-07T16:16:47.629Z,31.20
2022-08-07T16:20:34.162Z,30.90
2022-08-07T16:23:58.361Z,30.40
2022-08-07T16:26:31.001Z,30.10
2022-08-07T16:30:09.210Z,30.50
2022-08-07T16:32:34.475Z,30.70
2022-08-07T16:35:56.540Z,30.00
2022-08-07T16:39:00.566Z,29.30
2022-08-07T16:42:03.495Z,28.80
2022-08-07T16:46:33.695Z,28.30
2022-08-07T16:50:20.517Z,28.10
2022-08-07T16:54:01.212Z,27.80
2022-08-07T16:56:49.366Z,27.80
2022-08-07T17:00:02.522Z,27.80
2022-08-07T17:03:04.983Z,28.10
2022-08-07T17:06:38.773Z,27.80
2022-08-07T17:10:07.049Z,27.80
2022-08-07T17:12:48.218Z,27.60
2022-08-07T17:15:51.803Z,27.90
2022-08-07T17:18:57.307Z,28.20
2022-08-07T17:21:51.054Z,27.70
2022-08-07T17:25:02.935Z,27.20
2022-08-07T17:27:57.039Z,26.70
2022-08-07T17:30:57.641Z,26.40
2022-08-07T17:34:08.605Z,26.20
2022-08-07T17:36:34.170Z,26.00
2022-08-07T17:39:58.259Z,25.90
2022-08-07T17:42:59.976Z,25.80
2022-08-07T17:46:11.687Z,25.60
2022-08-07T17:49:23.850Z,25.50
2022-08-07T17:52:20.615Z,25.60
2022-08-07T17:55:12.717Z,25.60
2022-08-07T17:58:30.503Z,25.30
2022-08-07T18:01:21.490Z,25.00
2022-08-07T18:04:45.559Z,24.60
2022-08-07T18:07:34.229Z,24.30
2022-08-07T18:10:33.012Z,24.10
2022-08-07T18:13:30.679Z,23.90
2022-08-07T18:16:57.400Z,23.80
2022-08-07T18:21:06.352Z,23.50
2022-08-07T18:23:21.897Z,23.20
2022-08-07T18:26:14.921Z,22.80
2022-08-07T18:30:04.514Z,22.60
2022-08-07T18:32:31.372Z,22.40
2022-08-07T18:35:30.175Z,22.30
2022-08-07T18:40:05.807Z,22.10
2022-08-07T18:42:34.863Z,22.00
2022-08-07T18:45:44.243Z,21.90
2022-08-07T18:50:19.459Z,21.70
2022-08-07T18:52:53.029Z,21.50
2022-08-07T18:55:55.353Z,21.30
2022-08-07T18:58:58.204Z,21.10
2022-08-07T19:02:19.233Z,20.90
2022-08-07T19:06:03.205Z,20.70
2022-08-07T19:09:09.355Z,20.50
2022-08-07T19:13:10.340Z,20.40
2022-08-07T19:17:05.612Z,20.30
2022-08-07T19:19:37.703Z,20.20
2022-08-07T19:22:51.945Z,20.10
2022-08-07T19:26:21.987Z,20.10
2022-08-07T19:28:30.060Z,20.00
2022-08-07T19:31:57.805Z,20.00
2022-08-07T19:34:33.947Z,19.90
2022-08-07T19:37:17.323Z,19.80
2022-08-07T19:39:57.819Z,19.60
2022-08-07T19:42:40.440Z,19.50
2022-08-07T19:46:08.099Z,19.40
2022-08-07T19:48:42.238Z,19.30
2022-08-07T19:51:19.398Z,19.30
2022-08-07T19:54:31.864Z,19.20
2022-08-07T19:58:00.566Z,19.10
2022-08-07T19:59:42.461Z,19.00
2022-08-07T20:02:27.853Z,18.90
2022-08-07T20:05:00.313Z,18.80
2022-08-07T20:07:46.107Z,18.80
2022-08-07T20:10:37.085Z,18.80
2022-08-07T20:13:53.371Z,18.70
2022-08-07T20:16:32.055Z,18.60
2022-08-07T20:19:10.496Z,18.60
2022-08-07T20:21:47.436Z,18.50
2022-08-07T20:24:28.728Z,18.50
2022-08-07T20:27:02.476Z,18.40
2022-08-07T20:30:00.069Z,18.40
2022-08-07T20:32:42.963Z,18.40
2022-08-07T20:35:26.510Z,18.30
2022-08-07T20:37:59.026Z,18.20
2022-08-07T20:40:34.776Z,18.30
2022-08-07T20:43:14.537Z,18.30
2022-08-07T20:46:28.477Z,18.30
2022-08-07T20:49:54.074Z,18.20
2022-08-07T20:51:35.811Z,18.20
2022-08-07T20:54:12.011Z,18.10
2022-08-07T20:56:48.064Z,18.10
2022-08-07T21:00:05.227Z,18.00
2022-08-07T21:02:38.347Z,18.10
2022-08-07T21:05:42.695Z,18.10
2022-08-07T21:08:16.295Z,18.10
2022-08-07T21:10:50.756Z,18.10
2022-08-07T21:13:24.597Z,18.10
2022-08-07T21:16:13.299Z,18.10
2022-08-07T21:18:46.110Z,18.00
2022-08-07T21:21:21.378Z,18.00
2022-08-07T21:24:11.564Z,18.00
2022-08-07T21:26:51.072Z,18.00
2022-08-07T21:29:33.732Z,18.00
2022-08-07T21:32:55.319Z,17.90
2022-08-07T21:36:05.087Z,17.90
2022-08-07T21:39:46.083Z,17.80
2022-08-07T21:42:46.454Z,17.80
2022-08-07T21:46:03.548Z,17.70
2022-08-07T21:48:36.371Z,17.70
2022-08-07T21:51:51.809Z,17.70
2022-08-07T21:54:48.481Z,17.60
2022-08-07T21:58:29.992Z,17.60
2022-08-07T22:01:13.894Z,17.60
2022-08-07T22:04:00.807Z,17.50
2022-08-07T22:06:45.183Z,17.40
2022-08-07T22:09:26.361Z,17.30
2022-08-07T22:12:17.708Z,17.30
2022-08-07T22:16:42.457Z,17.20
2022-08-07T22:18:10.949Z,17.20
2022-08-07T22:22:02.237Z,17.30
2022-08-07T22:24:34.259Z,17.30
2022-08-07T22:27:34.176Z,17.20
2022-08-07T22:30:17.078Z,17.20
2022-08-07T22:33:15.187Z,17.10
2022-08-07T22:35:58.057Z,17.10
2022-08-07T22:38:49.787Z,17.10
2022-08-07T22:42:03.343Z,17.10
2022-08-07T22:44:38.015Z,17.10
2022-08-07T22:47:57.731Z,17.00
2022-08-07T22:50:46.924Z,17.00
2022-08-07T22:54:08.236Z,17.00
2022-08-07T22:57:17.124Z,17.00
2022-08-07T23:00:21.530Z,17.10
2022-08-07T23:03:58.170Z,17.10
2022-08-07T23:07:41.258Z,17.00
2022-08-07T23:11:02.178Z,16.90
2022-08-07T23:14:10.585Z,17.00
2022-08-07T23:17:15.876Z,17.00
2022-08-07T23:20:40.621Z,16.90
2022-08-07T23:24:05.112Z,16.90
2022-08-07T23:27:06.045Z,16.90
2022-08-07T23:30:38.356Z,16.90
2022-08-07T23:34:22.836Z,16.80
2022-08-07T23:37:19.866Z,16.90
2022-08-07T23:40:07.554Z,16.70
2022-08-07T23:43:19.618Z,16.60
2022-08-07T23:46:12.069Z,16.60
2022-08-07T23:50:02.435Z,16.50
2022-08-07T23:53:06.224Z,16.40
2022-08-07T23:56:20.803Z,16.40
